createdAt,value
2018-07-19T00:01:06.232Z,93.80
2018-07-19T00:03:34.484Z,93.90
2018-07-19T00:06:02.772Z,93.90
2018-07-19T00:08:31.020Z,94.20
2018-07-19T00:10:59.280Z,94.30
2018-07-19T00:13:27.517Z,93.90
2018-07-19T00:15:55.779Z,93.70
2018-07-19T00:18:26.508Z,93.90
2018-07-19T00:20:55.913Z,93.80
2018-07-19T00:23:24.782Z,93.70
2018-07-19T00:25:53.043Z,93.70
2018-07-19T00:28:21.333Z,93.90
2018-07-19T00:30:49.593Z,93.90
2018-07-19T00:33:17.815Z,93.60
2018-07-19T00:35:46.072Z,93.80
2018-07-19T00:38:14.344Z,93.80
2018-07-19T00:43:10.651Z,93.90
2018-07-19T00:45:38.920Z,93.90
2018-07-19T00:48:07.630Z,94.20
2018-07-19T00:50:35.913Z,94.60
2018-07-19T00:53:04.341Z,94.30
2018-07-19T00:55:32.611Z,93.60
2018-07-19T00:58:00.876Z,93.50
2018-07-19T01:00:29.119Z,93.20
2018-07-19T01:05:25.381Z,93.20
2018-07-19T01:07:53.601Z,93.70
2018-07-19T01:10:22.526Z,93.90
2018-07-19T01:12:50.771Z,93.80
2018-07-19T01:15:19.024Z,93.60
2018-07-19T01:17:47.264Z,94.00
2018-07-19T01:20:15.527Z,93.50
2018-07-19T01:25:11.820Z,94.20
2018-07-19T01:27:40.063Z,94.80
2018-07-19T01:32:36.486Z,95.20
2018-07-19T01:35:04.751Z,94.80
2018-07-19T01:37:33.005Z,94.70
2018-07-19T01:40:01.377Z,94.80
2018-07-19T01:42:35.131Z,94.60
2018-07-19T01:45:03.391Z,95.00
2018-07-19T01:47:31.633Z,94.70
2018-07-19T01:49:59.884Z,94.40
2018-07-19T01:52:28.130Z,94.40
2018-07-19T01:54:56.395Z,94.40
2018-07-19T01:57:24.664Z,94.60
2018-07-19T01:59:52.896Z,94.60
2018-07-19T02:02:21.163Z,94.50
2018-07-19T02:04:49.410Z,94.20
2018-07-19T02:07:17.676Z,94.30
2018-07-19T02:09:45.907Z,94.50
2018-07-19T02:12:14.139Z,94.50
2018-07-19T02:14:42.376Z,94.60
2018-07-19T02:17:10.620Z,95.40
2018-07-19T02:19:38.872Z,95.20
2018-07-19T02:22:07.137Z,95.10
2018-07-19T02:24:35.371Z,95.00
2018-07-19T02:27:03.638Z,94.90
2018-07-19T02:29:31.860Z,95.20
2018-07-19T02:32:00.099Z,95.40
2018-07-19T02:34:28.336Z,95.30
2018-07-19T02:36:56.612Z,95.50
2018-07-19T02:39:24.844Z,95.80
2018-07-19T02:44:21.137Z,95.60
2018-07-19T02:46:49.402Z,95.70
2018-07-19T02:49:17.632Z,95.70
2018-07-19T02:51:45.879Z,95.70
2018-07-19T02:54:14.087Z,95.70
2018-07-19T02:56:42.323Z,95.70
2018-07-19T02:59:10.554Z,95.80
2018-07-19T03:01:38.783Z,96.00
2018-07-19T03:04:07.061Z,96.10
2018-07-19T03:06:35.402Z,96.30
2018-07-19T03:09:04.019Z,96.50
2018-07-19T03:11:32.277Z,96.60
2018-07-19T03:14:00.550Z,96.70
2018-07-19T03:16:28.784Z,96.60
2018-07-19T03:18:57.048Z,96.60
2018-07-19T03:23:53.339Z,97.10
2018-07-19T03:26:21.588Z,97.20
2018-07-19T03:28:49.828Z,97.20
2018-07-19T03:31:18.071Z,97.20
2018-07-19T03:33:46.297Z,97.10
2018-07-19T03:36:14.539Z,97.20
2018-07-19T03:38:43.545Z,97.30
2018-07-19T03:41:11.772Z,97.20
2018-07-19T03:43:40.052Z,97.70
2018-07-19T03:46:08.559Z,97.40
2018-07-19T03:48:36.779Z,97.50
2018-07-19T03:51:04.996Z,97.50
2018-07-19T03:53:33.237Z,97.60
2018-07-19T03:56:01.471Z,97.60
2018-07-19T04:00:57.737Z,97.50
2018-07-19T04:03:25.983Z,97.70
2018-07-19T04:05:54.208Z,97.60
2018-07-19T04:08:22.494Z,97.50
2018-07-19T04:10:50.722Z,97.20
2018-07-19T04:13:18.964Z,97.30
2018-07-19T04:15:47.248Z,97.10
2018-07-19T04:18:15.488Z,97.10
2018-07-19T04:20:43.728Z,96.80
2018-07-19T04:25:39.970Z,97.30
2018-07-19T04:28:08.317Z,97.60
2018-07-19T04:30:36.538Z,97.40
2018-07-19T04:33:05.470Z,97.10
2018-07-19T04:35:33.706Z,97.40
2018-07-19T04:38:02.024Z,96.90
2018-07-19T04:40:30.243Z,97.10
2018-07-19T04:42:58.488Z,96.60
2018-07-19T04:47:54.779Z,96.00
2018-07-19T04:50:23.008Z,96.30
2018-07-19T04:52:51.312Z,95.50
2018-07-19T04:55:19.553Z,95.30
2018-07-19T04:57:47.792Z,95.80
2018-07-19T05:00:16.054Z,95.30
2018-07-19T05:02:44.307Z,95.40
2018-07-19T05:05:12.550Z,95.30
2018-07-19T05:07:40.803Z,94.90
2018-07-19T05:10:09.020Z,94.70
2018-07-19T05:12:37.255Z,95.50
2018-07-19T05:15:05.525Z,94.90
2018-07-19T05:17:33.768Z,95.10
2018-07-19T05:20:02.043Z,95.00
2018-07-19T05:22:30.304Z,95.10
2018-07-19T05:24:58.504Z,94.50
2018-07-19T05:27:26.858Z,94.90
2018-07-19T05:29:55.105Z,94.30
2018-07-19T05:32:23.348Z,93.70
2018-07-19T05:34:51.625Z,94.00
2018-07-19T05:37:19.983Z,93.90
2018-07-19T05:39:48.222Z,94.00
2018-07-19T05:42:16.485Z,94.30
2018-07-19T05:44:44.684Z,94.30
2018-07-19T05:47:12.975Z,94.30
2018-07-19T05:49:41.262Z,94.70
2018-07-19T05:52:09.977Z,94.20
2018-07-19T05:54:38.236Z,94.20
2018-07-19T05:57:06.461Z,94.70
2018-07-19T05:59:34.723Z,95.00
2018-07-19T06:02:02.989Z,94.50
2018-07-19T06:04:31.236Z,94.20
2018-07-19T06:06:59.596Z,94.60
2018-07-19T06:09:27.904Z,94.70
2018-07-19T06:11:56.231Z,95.00
2018-07-19T06:14:24.830Z,95.00
2018-07-19T06:16:53.967Z,94.30
2018-07-19T06:19:22.229Z,94.00
2018-07-19T06:21:50.458Z,93.80
2018-07-19T06:24:18.707Z,94.40
2018-07-19T06:26:46.968Z,94.10
2018-07-19T06:31:43.254Z,94.10
2018-07-19T06:34:11.508Z,93.00
2018-07-19T06:36:39.735Z,93.80
2018-07-19T06:39:08.039Z,93.70
2018-07-19T06:41:36.300Z,93.30
2018-07-19T06:46:32.606Z,92.10
2018-07-19T06:49:00.874Z,91.90
2018-07-19T06:51:29.163Z,91.60
2018-07-19T06:53:57.477Z,91.40
2018-07-19T06:56:25.739Z,91.40
2018-07-19T06:58:54.018Z,91.00
2018-07-19T07:01:22.262Z,90.70
2018-07-19T07:03:50.552Z,90.70
2018-07-19T07:06:18.780Z,90.10
2018-07-19T07:08:47.099Z,90.60
2018-07-19T07:11:15.362Z,90.10
2018-07-19T07:13:43.616Z,89.00
2018-07-19T07:16:11.862Z,90.00
2018-07-19T07:18:40.143Z,89.90
2018-07-19T07:23:36.443Z,90.40
2018-07-19T07:26:04.691Z,85.90
2018-07-19T07:28:32.971Z,84.90
2018-07-19T07:31:01.271Z,82.30
2018-07-19T07:33:29.521Z,79.70
2018-07-19T07:35:57.784Z,74.30
2018-07-19T07:38:26.004Z,73.20
2018-07-19T07:40:54.322Z,70.50
2018-07-19T07:43:22.596Z,70.40
2018-07-19T07:45:50.841Z,74.30
2018-07-19T07:48:19.082Z,75.70
2018-07-19T07:50:47.342Z,77.60
2018-07-19T07:53:15.619Z,77.70
2018-07-19T07:55:43.875Z,77.20
2018-07-19T07:58:12.131Z,71.40
2018-07-19T08:00:40.392Z,60.50
2018-07-19T08:03:08.713Z,57.00
2018-07-19T08:05:36.990Z,55.00
2018-07-19T08:08:05.263Z,54.90
2018-07-19T08:10:33.528Z,57.40
2018-07-19T08:13:01.790Z,57.30
2018-07-19T08:15:30.063Z,58.20
2018-07-19T08:17:58.300Z,58.60
2018-07-19T08:20:26.604Z,61.90
2018-07-19T08:22:54.845Z,63.40
2018-07-19T08:25:23.130Z,64.20
2018-07-19T08:27:51.359Z,58.90
2018-07-19T08:30:19.615Z,60.70
2018-07-19T08:32:47.843Z,57.20
2018-07-19T08:35:16.160Z,59.40
2018-07-19T08:37:44.401Z,61.50
2018-07-19T08:40:13.235Z,64.30
2018-07-19T08:42:41.471Z,64.20
2018-07-19T08:45:09.718Z,63.10
2018-07-19T08:47:37.975Z,61.80
2018-07-19T08:50:06.358Z,61.20
2018-07-19T08:52:34.621Z,65.90
2018-07-19T08:55:02.861Z,66.10
2018-07-19T08:57:31.303Z,67.40
2018-07-19T08:59:59.535Z,71.00
2018-07-19T09:02:27.776Z,73.10
2018-07-19T09:04:56.044Z,72.50
2018-07-19T09:07:24.269Z,73.40
2018-07-19T09:09:53.216Z,73.10
2018-07-19T09:12:21.452Z,73.60
2018-07-19T09:14:50.399Z,73.00
2018-07-19T09:17:18.637Z,72.20
2018-07-19T09:19:46.902Z,70.10
2018-07-19T09:22:15.156Z,74.60
2018-07-19T09:24:43.724Z,71.60
2018-07-19T09:27:11.992Z,72.20
2018-07-19T09:29:40.219Z,72.50
2018-07-19T09:32:08.487Z,71.70
2018-07-19T09:34:36.720Z,75.60
2018-07-19T09:37:05.188Z,73.90
2018-07-19T09:39:33.444Z,74.20
2018-07-19T09:42:01.776Z,73.60
2018-07-19T09:44:30.026Z,74.30
2018-07-19T09:46:58.275Z,74.90
2018-07-19T09:49:26.521Z,76.40
2018-07-19T09:51:54.770Z,73.90
2018-07-19T09:54:34.382Z,76.10
2018-07-19T09:57:02.571Z,76.60
2018-07-19T09:59:30.863Z,77.50
2018-07-19T10:01:59.083Z,78.30
2018-07-19T10:04:27.324Z,78.40
2018-07-19T10:06:55.589Z,80.60
2018-07-19T10:09:23.824Z,79.70
2018-07-19T10:11:52.146Z,79.60
2018-07-19T10:14:20.371Z,79.60
2018-07-19T10:16:48.644Z,81.00
2018-07-19T10:19:16.871Z,81.10
2018-07-19T10:21:45.115Z,79.50
2018-07-19T10:24:13.377Z,79.50
2018-07-19T10:26:41.661Z,81.00
2018-07-19T10:29:09.873Z,82.50
2018-07-19T10:31:38.147Z,82.40
2018-07-19T10:34:06.398Z,82.70
2018-07-19T10:36:34.677Z,83.70
2018-07-19T10:39:02.986Z,85.20
2018-07-19T10:41:31.262Z,83.10
2018-07-19T10:43:59.491Z,81.60
2018-07-19T10:46:27.746Z,83.30
2018-07-19T10:48:56.004Z,80.90
2018-07-19T10:51:24.239Z,80.10
2018-07-19T10:53:52.458Z,78.90
2018-07-19T10:56:20.994Z,78.20
2018-07-19T10:58:49.215Z,80.70
2018-07-19T11:01:17.438Z,76.90
2018-07-19T11:03:45.668Z,75.30
2018-07-19T11:06:13.903Z,75.10
2018-07-19T11:08:42.122Z,76.70
2018-07-19T11:11:10.404Z,74.40
2018-07-19T11:13:38.622Z,78.10
2018-07-19T11:16:06.887Z,74.40
2018-07-19T11:18:35.109Z,76.60
2018-07-19T11:21:03.350Z,76.20
2018-07-19T11:23:31.781Z,77.00
2018-07-19T11:26:00.006Z,74.00
2018-07-19T11:28:28.323Z,77.30
2018-07-19T11:30:56.517Z,72.30
2018-07-19T11:33:24.780Z,73.80
2018-07-19T11:35:53.000Z,74.60
2018-07-19T11:38:21.247Z,75.70
2018-07-19T11:40:49.466Z,71.60
2018-07-19T11:43:17.684Z,75.10
2018-07-19T11:45:46.165Z,72.70
2018-07-19T11:50:42.419Z,69.70
2018-07-19T11:53:10.645Z,67.20
2018-07-19T11:55:38.959Z,70.50
2018-07-19T11:58:07.199Z,71.30
2018-07-19T12:00:35.430Z,65.30
2018-07-19T12:03:03.728Z,64.80
2018-07-19T12:05:32.366Z,66.30
2018-07-19T12:08:00.651Z,65.10
2018-07-19T12:10:28.928Z,63.20
2018-07-19T12:12:57.168Z,60.90
2018-07-19T12:17:53.438Z,58.50
2018-07-19T12:20:21.668Z,60.90
2018-07-19T12:22:49.912Z,59.20
2018-07-19T12:25:18.190Z,59.40
2018-07-19T12:27:46.408Z,62.30
2018-07-19T12:30:14.616Z,62.10
2018-07-19T12:32:42.851Z,64.10
2018-07-19T12:35:11.063Z,64.60
2018-07-19T12:37:39.331Z,62.40
2018-07-19T12:40:07.549Z,64.00
2018-07-19T12:42:35.786Z,63.10
2018-07-19T12:45:04.372Z,62.50
2018-07-19T12:47:32.579Z,60.00
2018-07-19T12:50:00.800Z,60.00
2018-07-19T12:52:29.095Z,60.90
2018-07-19T12:54:57.319Z,60.20
2018-07-19T12:57:25.544Z,61.20
2018-07-19T12:59:53.780Z,60.50
2018-07-19T13:02:22.039Z,62.00
2018-07-19T13:04:50.284Z,62.40
2018-07-19T13:07:18.509Z,64.80
2018-07-19T13:09:46.717Z,64.40
2018-07-19T13:12:14.931Z,66.50
2018-07-19T13:14:43.180Z,67.40
2018-07-19T13:17:11.520Z,66.80
2018-07-19T13:19:39.747Z,68.30
2018-07-19T13:22:08.017Z,66.90
2018-07-19T13:24:36.220Z,67.20
2018-07-19T13:27:04.510Z,68.00
2018-07-19T13:29:32.797Z,65.50
2018-07-19T13:34:28.991Z,65.30
2018-07-19T13:36:57.195Z,64.50
2018-07-19T13:39:25.466Z,63.60
2018-07-19T13:41:53.681Z,64.20
2018-07-19T13:44:22.071Z,63.40
2018-07-19T13:46:50.288Z,63.20
2018-07-19T13:49:18.552Z,62.90
2018-07-19T13:51:46.764Z,60.40
2018-07-19T13:54:25.076Z,60.30
2018-07-19T13:56:53.296Z,61.10
2018-07-19T13:59:21.539Z,61.00
2018-07-19T14:01:49.807Z,60.30
2018-07-19T14:04:18.037Z,60.50
2018-07-19T14:06:46.264Z,60.30
2018-07-19T14:09:15.416Z,60.80
2018-07-19T14:11:43.683Z,59.40
2018-07-19T14:14:11.895Z,61.00
2018-07-19T14:16:40.127Z,59.00
2018-07-19T14:19:08.376Z,59.70
2018-07-19T14:21:36.609Z,59.00
2018-07-19T14:24:04.851Z,59.10
2018-07-19T14:26:33.111Z,57.90
2018-07-19T14:29:01.341Z,57.00
2018-07-19T14:31:29.596Z,59.40
2018-07-19T14:36:25.843Z,57.00
2018-07-19T14:38:54.070Z,55.80
2018-07-19T14:41:23.577Z,55.70
2018-07-19T14:43:51.850Z,55.20
2018-07-19T14:46:20.062Z,53.60
2018-07-19T14:48:48.312Z,53.90
2018-07-19T14:51:16.524Z,55.00
2018-07-19T14:53:44.759Z,54.40
2018-07-19T14:56:12.991Z,54.90
2018-07-19T14:58:41.228Z,55.00
2018-07-19T15:01:09.457Z,52.40
2018-07-19T15:03:38.124Z,53.50
2018-07-19T15:06:06.415Z,54.00
2018-07-19T15:08:34.626Z,53.40
2018-07-19T15:11:02.972Z,53.80
2018-07-19T15:13:31.320Z,53.60
2018-07-19T15:15:59.581Z,55.30
2018-07-19T15:18:27.844Z,55.90
2018-07-19T15:20:56.063Z,54.00
2018-07-19T15:23:24.273Z,53.80
2018-07-19T15:25:52.516Z,54.60
2018-07-19T15:28:20.729Z,54.60
2018-07-19T15:30:48.953Z,52.30
2018-07-19T15:33:17.165Z,53.10
2018-07-19T15:35:45.456Z,52.70
2018-07-19T15:38:13.672Z,53.50
2018-07-19T15:40:41.920Z,54.70
2018-07-19T15:43:10.427Z,52.40
2018-07-19T15:45:38.663Z,52.90
2018-07-19T15:48:06.876Z,54.40
2018-07-19T15:50:35.116Z,54.50
2018-07-19T15:53:03.370Z,55.20
2018-07-19T15:55:31.701Z,55.60
2018-07-19T15:57:59.927Z,56.10
2018-07-19T16:00:28.157Z,57.60
2018-07-19T16:02:56.495Z,55.50
2018-07-19T16:07:52.748Z,55.80
2018-07-19T16:10:20.980Z,54.20
2018-07-19T16:12:49.183Z,54.20
2018-07-19T16:15:17.440Z,52.40
2018-07-19T16:17:45.674Z,51.20
2018-07-19T16:20:13.942Z,51.40
2018-07-19T16:22:42.180Z,51.30
2018-07-19T16:25:10.478Z,51.00
2018-07-19T16:27:38.695Z,50.80
2018-07-19T16:30:07.007Z,52.10
2018-07-19T16:32:35.224Z,53.00
2018-07-19T16:35:03.462Z,51.60
2018-07-19T16:37:31.692Z,52.10
2018-07-19T16:39:59.920Z,53.30
2018-07-19T16:42:28.131Z,54.90
2018-07-19T16:44:56.356Z,53.80
2018-07-19T16:47:24.560Z,54.50
2018-07-19T16:49:52.795Z,54.90
2018-07-19T16:52:21.000Z,54.80
2018-07-19T16:54:49.239Z,55.00
2018-07-19T16:57:17.443Z,55.80
2018-07-19T17:02:13.663Z,56.10
2018-07-19T17:04:42.147Z,54.70
2018-07-19T17:07:10.396Z,55.50
2018-07-19T17:09:38.663Z,57.10
2018-07-19T17:12:06.868Z,56.80
2018-07-19T17:14:35.071Z,58.10
2018-07-19T17:17:03.342Z,57.60
2018-07-19T17:19:31.562Z,58.00
2018-07-19T17:21:59.784Z,59.60
2018-07-19T17:24:28.458Z,58.70
2018-07-19T17:26:56.680Z,59.90
2018-07-19T17:29:24.908Z,62.20
2018-07-19T17:31:53.147Z,60.40
2018-07-19T17:34:21.419Z,62.30
2018-07-19T17:36:49.636Z,63.30
2018-07-19T17:39:17.849Z,63.60
2018-07-19T17:41:46.128Z,64.60
2018-07-19T17:44:14.362Z,67.30
2018-07-19T17:46:42.604Z,67.80
2018-07-19T17:49:10.812Z,67.30
2018-07-19T17:51:39.060Z,67.30
2018-07-19T17:54:07.299Z,68.10
2018-07-19T17:56:35.595Z,66.80
2018-07-19T17:59:03.896Z,67.40
2018-07-19T18:01:32.371Z,65.40
2018-07-19T18:04:00.593Z,66.60
2018-07-19T18:06:28.855Z,67.30
2018-07-19T18:08:57.836Z,70.00
2018-07-19T18:11:26.089Z,71.20
2018-07-19T18:13:54.324Z,71.10
2018-07-19T18:16:22.573Z,74.50
2018-07-19T18:18:51.100Z,72.60
2018-07-19T18:21:19.340Z,73.20
2018-07-19T18:23:47.566Z,76.50
2018-07-19T18:26:15.804Z,75.70
2018-07-19T18:28:44.047Z,77.00
2018-07-19T18:31:12.301Z,76.40
2018-07-19T18:33:40.859Z,77.20
2018-07-19T18:36:09.147Z,78.90
2018-07-19T18:38:37.813Z,80.80
2018-07-19T18:43:34.110Z,80.80
2018-07-19T18:46:02.524Z,82.60
2018-07-19T18:48:30.752Z,83.10
2018-07-19T18:50:59.013Z,85.30
2018-07-19T18:53:27.275Z,84.70
2018-07-19T18:55:55.492Z,87.50
2018-07-19T18:58:23.762Z,88.90
2018-07-19T19:00:51.980Z,88.70
2018-07-19T19:03:20.225Z,90.40
2018-07-19T19:05:48.459Z,90.90
2018-07-19T19:10:44.704Z,90.50
2018-07-19T19:13:12.959Z,91.50
2018-07-19T19:15:41.192Z,92.00
2018-07-19T19:18:09.447Z,93.10
2018-07-19T19:20:37.676Z,93.90
2018-07-19T19:23:05.996Z,94.20
2018-07-19T19:25:34.229Z,93.80
2018-07-19T19:28:02.518Z,94.30
2018-07-19T19:30:36.204Z,94.40
2018-07-19T19:33:04.737Z,95.40
2018-07-19T19:35:32.960Z,96.20
2018-07-19T19:38:01.252Z,96.80
2018-07-19T19:40:29.491Z,97.20
2018-07-19T19:42:57.742Z,97.50
2018-07-19T19:45:25.965Z,98.50
2018-07-19T19:47:54.340Z,98.60
2018-07-19T19:50:22.570Z,98.60
2018-07-19T19:52:50.815Z,98.70
2018-07-19T19:55:19.170Z,99.00
2018-07-19T19:57:47.500Z,98.30
2018-07-19T20:00:15.725Z,99.40
2018-07-19T20:02:43.958Z,99.70
2018-07-19T20:05:12.163Z,99.90
2018-07-19T20:07:40.412Z,99.90
2018-07-19T20:10:08.617Z,99.90
2018-07-19T20:12:36.858Z,99.90
2018-07-19T20:15:05.176Z,99.90
2018-07-19T20:17:33.438Z,99.90
2018-07-19T20:20:01.673Z,99.90
2018-07-19T20:22:29.892Z,99.90
2018-07-19T20:24:58.111Z,99.90
2018-07-19T20:27:26.343Z,99.90
2018-07-19T20:29:54.569Z,99.90
2018-07-19T20:32:22.995Z,99.90
2018-07-19T20:34:51.209Z,99.90
2018-07-19T20:37:19.478Z,99.90
2018-07-19T20:39:47.693Z,99.90
2018-07-19T20:42:15.916Z,99.90
2018-07-19T20:44:44.131Z,99.90
2018-07-19T20:47:12.363Z,99.90
2018-07-19T20:49:40.592Z,99.90
2018-07-19T20:52:09.114Z,99.90
2018-07-19T20:54:37.336Z,99.90
2018-07-19T20:57:05.558Z,99.90
2018-07-19T20:59:33.780Z,99.90
2018-07-19T21:02:01.988Z,99.90
2018-07-19T21:04:30.226Z,99.90
2018-07-19T21:06:58.435Z,99.90
2018-07-19T21:09:26.673Z,99.90
2018-07-19T21:11:54.892Z,99.90
2018-07-19T21:14:23.136Z,99.90
2018-07-19T21:16:51.448Z,99.90
2018-07-19T21:19:19.685Z,99.90
2018-07-19T21:21:47.909Z,99.90
2018-07-19T21:24:16.161Z,99.90
2018-07-19T21:26:44.528Z,99.90
2018-07-19T21:29:12.778Z,99.90
2018-07-19T21:31:41.037Z,99.90
2018-07-19T21:34:09.275Z,99.90
2018-07-19T21:39:08.053Z,99.90
2018-07-19T21:41:36.277Z,99.90
2018-07-19T21:44:04.508Z,99.90
2018-07-19T21:46:32.726Z,99.90
2018-07-19T21:49:00.961Z,99.90
2018-07-19T21:51:29.186Z,99.90
2018-07-19T21:53:57.493Z,99.90
2018-07-19T21:56:25.732Z,99.90
2018-07-19T21:58:53.952Z,99.90
2018-07-19T22:01:22.248Z,99.90
2018-07-19T22:03:50.467Z,99.90
2018-07-19T22:06:18.691Z,99.90
2018-07-19T22:08:46.955Z,99.90
2018-07-19T22:11:15.300Z,99.90
2018-07-19T22:13:43.507Z,99.90
2018-07-19T22:16:11.906Z,99.90
2018-07-19T22:18:40.182Z,99.90
2018-07-19T22:21:08.395Z,99.90
2018-07-19T22:23:36.621Z,99.90
2018-07-19T22:26:05.019Z,99.90
2018-07-19T22:28:33.191Z,99.90
2018-07-19T22:31:01.404Z,99.90
2018-07-19T22:33:29.623Z,99.90
2018-07-19T22:35:57.920Z,99.90
2018-07-19T22:38:26.161Z,99.90
2018-07-19T22:45:50.467Z,99.90
2018-07-19T22:48:18.677Z,99.90
2018-07-19T22:50:46.924Z,99.90
2018-07-19T22:53:15.160Z,99.90
2018-07-19T22:55:43.421Z,99.90
2018-07-19T22:58:11.647Z,99.90
2018-07-19T23:03:07.912Z,99.90
2018-07-19T23:05:36.154Z,99.90
2018-07-19T23:08:04.429Z,99.90
2018-07-19T23:10:32.648Z,99.90
2018-07-19T23:13:00.876Z,99.90
2018-07-19T23:15:29.119Z,99.90
2018-07-19T23:17:57.545Z,99.90
2018-07-19T23:20:25.772Z,99.90
2018-07-19T23:22:56.923Z,99.90
2018-07-19T23:25:25.312Z,99.90
2018-07-19T23:27:54.294Z,99.90
2018-07-19T23:30:24.784Z,99.90
2018-07-19T23:32:53.008Z,99.90
2018-07-19T23:35:22.500Z,99.90
2018-07-19T23:37:52.517Z,99.90
2018-07-19T23:40:25.326Z,99.90
2018-07-19T23:43:31.163Z,99.90
2018-07-19T23:46:05.071Z,99.90
2018-07-19T23:48:33.286Z,99.90
2018-07-19T23:51:01.523Z,99.90
2018-07-19T23:53:29.742Z,99.90
2018-07-19T23:55:58.217Z,99.90
2018-07-19T23:58:26.431Z,99.90
